createdAt,value
2023-02-05T00:02:29.404Z,55.75
2023-02-05T00:04:59.637Z,57.17
2023-02-05T00:07:30.002Z,55.70
2023-02-05T00:10:00.045Z,55.33
2023-02-05T00:12:30.621Z,54.88
2023-02-05T00:15:00.735Z,55.75
2023-02-05T00:17:30.976Z,52.97
2023-02-05T00:20:01.346Z,51.00
2023-02-05T00:22:31.523Z,52.58
2023-02-05T00:25:02.109Z,56.33
2023-02-05T00:27:32.304Z,54.95
2023-02-05T00:30:02.999Z,54.90
2023-02-05T00:32:33.166Z,58.35
2023-02-05T00:35:03.232Z,54.95
2023-02-05T00:37:33.570Z,55.85
2023-02-05T00:40:03.438Z,56.40
2023-02-05T00:42:35.040Z,55.95
2023-02-05T00:45:05.221Z,55.88
2023-02-05T00:47:35.928Z,49.40
2023-02-05T00:50:07.291Z,48.85
2023-02-05T00:52:38.141Z,52.30
2023-02-05T00:55:08.930Z,49.22
2023-02-05T00:57:39.140Z,51.60
2023-02-05T01:00:10.349Z,52.70
2023-02-05T01:02:40.824Z,51.88
2023-02-05T01:05:11.468Z,55.13
2023-02-05T01:07:41.855Z,49.05
2023-02-05T01:10:12.582Z,47.70
2023-02-05T01:12:42.795Z,50.35
2023-02-05T01:15:15.043Z,54.20
2023-02-05T01:17:46.227Z,45.30
2023-02-05T01:20:17.739Z,41.17
2023-02-05T01:22:47.914Z,37.22
2023-02-05T01:25:18.731Z,39.45
2023-02-05T01:27:49.206Z,78.88
2023-02-05T01:30:20.147Z,41.28
2023-02-05T01:32:51.657Z,38.10
2023-02-05T01:35:21.995Z,35.25
2023-02-05T01:37:52.852Z,37.13
2023-02-05T01:40:23.662Z,32.35
2023-02-05T01:42:54.115Z,33.65
2023-02-05T01:45:44.160Z,33.00
2023-02-05T01:48:14.311Z,33.75
2023-02-05T01:50:46.742Z,30.40
2023-02-05T01:53:34.733Z,30.05
2023-02-05T01:56:09.032Z,24.83
2023-02-05T01:58:43.022Z,24.92
2023-02-05T02:01:13.454Z,25.15
2023-02-05T02:03:44.217Z,23.33
2023-02-05T02:06:14.421Z,29.23
2023-02-05T02:08:45.415Z,32.58
2023-02-05T02:11:18.788Z,37.78
2023-02-05T02:13:50.470Z,23.35
2023-02-05T02:16:21.536Z,24.25
2023-02-05T02:18:51.967Z,22.58
2023-02-05T02:21:31.132Z,21.50
2023-02-05T02:24:16.194Z,22.50
2023-02-05T02:27:06.575Z,25.67
2023-02-05T02:29:44.596Z,28.35
2023-02-05T02:32:26.746Z,30.48
2023-02-05T02:35:06.906Z,21.63
2023-02-05T02:37:44.348Z,38.97
2023-02-05T02:40:19.526Z,23.75
2023-02-05T02:42:53.842Z,25.40
2023-02-05T02:45:25.898Z,22.98
2023-02-05T02:47:58.811Z,33.45
2023-02-05T02:50:36.131Z,30.92
2023-02-05T02:53:11.362Z,27.67
2023-02-05T02:55:44.580Z,23.35
2023-02-05T02:58:19.174Z,20.50
2023-02-05T03:00:50.444Z,24.65
2023-02-05T03:03:22.871Z,20.98
2023-02-05T03:05:55.048Z,17.38
2023-02-05T03:08:33.968Z,22.90
2023-02-05T03:11:22.376Z,18.73
2023-02-05T03:13:53.144Z,19.05
2023-02-05T03:16:29.115Z,23.25
2023-02-05T03:18:59.848Z,22.75
2023-02-05T03:21:49.934Z,19.95
2023-02-05T03:24:20.613Z,22.83
2023-02-05T03:26:52.413Z,23.58
2023-02-05T03:29:33.824Z,24.60
2023-02-05T03:32:31.232Z,22.15
2023-02-05T03:35:21.542Z,20.95
2023-02-05T03:38:03.813Z,22.95
2023-02-05T03:40:54.924Z,23.17
2023-02-05T03:43:44.827Z,26.50
2023-02-05T03:46:35.688Z,38.75
2023-02-05T03:49:25.333Z,37.17
2023-02-05T03:52:00.709Z,39.05
2023-02-05T03:54:51.791Z,39.65
2023-02-05T03:57:30.322Z,42.38
2023-02-05T04:00:01.967Z,37.08
2023-02-05T04:02:44.485Z,35.95
2023-02-05T04:05:22.736Z,29.02
2023-02-05T04:07:56.075Z,29.92
2023-02-05T04:10:30.737Z,26.83
2023-02-05T04:13:04.051Z,27.50
2023-02-05T04:15:36.203Z,24.63
2023-02-05T04:18:10.880Z,22.98
2023-02-05T04:20:41.684Z,23.35
2023-02-05T04:23:12.835Z,24.55
2023-02-05T04:25:45.246Z,21.50
2023-02-05T04:28:20.534Z,21.75
2023-02-05T04:30:51.622Z,20.88
2023-02-05T04:33:22.769Z,21.83
2023-02-05T04:35:53.492Z,29.80
2023-02-05T04:38:23.921Z,26.73
2023-02-05T04:40:54.377Z,24.02
2023-02-05T04:43:24.918Z,27.92
2023-02-05T04:45:55.205Z,24.77
2023-02-05T04:48:25.690Z,26.58
2023-02-05T04:50:56.158Z,37.08
2023-02-05T04:53:26.510Z,29.90
2023-02-05T04:56:06.104Z,56.97
2023-02-05T04:58:36.500Z,26.88
2023-02-05T05:01:06.962Z,30.75
2023-02-05T05:03:37.061Z,30.33
2023-02-05T05:06:07.485Z,31.23
2023-02-05T05:08:39.015Z,23.90
2023-02-05T05:11:14.376Z,23.73
2023-02-05T05:13:44.751Z,24.83
2023-02-05T05:16:15.495Z,20.25
2023-02-05T05:18:46.065Z,25.38
2023-02-05T05:21:16.648Z,21.55
2023-02-05T05:23:47.464Z,19.20
2023-02-05T05:26:18.294Z,21.23
2023-02-05T05:28:48.785Z,21.17
2023-02-05T05:31:21.023Z,22.17
2023-02-05T05:33:51.474Z,21.40
2023-02-05T05:36:22.142Z,20.48
2023-02-05T05:38:52.191Z,21.83
2023-02-05T05:41:44.494Z,21.23
2023-02-05T05:44:14.903Z,21.85
2023-02-05T05:46:45.469Z,21.35
2023-02-05T05:49:15.562Z,20.77
2023-02-05T05:51:45.999Z,23.58
2023-02-05T05:54:16.177Z,21.90
2023-02-05T05:56:46.716Z,18.83
2023-02-05T05:59:17.848Z,19.45
2023-02-05T06:01:48.446Z,19.08
2023-02-05T06:04:18.631Z,19.52
2023-02-05T06:06:49.211Z,19.48
2023-02-05T06:09:19.752Z,21.70
2023-02-05T06:11:50.759Z,18.35
2023-02-05T06:14:20.933Z,21.23
2023-02-05T06:16:51.271Z,22.33
2023-02-05T06:19:21.568Z,20.05
2023-02-05T06:21:52.053Z,22.58
2023-02-05T06:24:22.157Z,20.40
2023-02-05T06:26:52.334Z,20.20
2023-02-05T06:29:22.595Z,22.52
2023-02-05T06:31:53.105Z,17.80
2023-02-05T06:34:23.261Z,20.92
2023-02-05T06:36:53.335Z,17.40
2023-02-05T06:39:25.247Z,22.40
2023-02-05T06:41:55.744Z,19.38
2023-02-05T06:44:26.168Z,20.25
2023-02-05T06:46:56.936Z,19.92
2023-02-05T06:49:27.133Z,23.17
2023-02-05T06:51:57.081Z,18.23
2023-02-05T06:54:27.235Z,19.80
2023-02-05T06:56:57.561Z,20.02
2023-02-05T06:59:27.972Z,19.40
2023-02-05T07:01:58.474Z,25.67
2023-02-05T07:04:28.612Z,19.30
2023-02-05T07:06:59.114Z,22.23
2023-02-05T07:09:30.003Z,19.20
2023-02-05T07:12:00.679Z,21.35
2023-02-05T07:14:32.982Z,20.92
2023-02-05T07:17:03.362Z,18.05
2023-02-05T07:19:33.507Z,21.85
2023-02-05T07:22:03.519Z,19.90
2023-02-05T07:24:34.109Z,20.42
2023-02-05T07:27:04.482Z,19.02
2023-02-05T07:29:34.914Z,19.85
2023-02-05T07:32:05.383Z,22.45
2023-02-05T07:34:35.707Z,19.42
2023-02-05T07:37:06.368Z,18.77
2023-02-05T07:39:36.842Z,27.48
2023-02-05T07:42:07.539Z,19.90
2023-02-05T07:44:45.816Z,20.70
2023-02-05T07:47:16.187Z,19.70
2023-02-05T07:49:46.754Z,18.50
2023-02-05T07:52:17.117Z,21.08
2023-02-05T07:54:47.170Z,20.40
2023-02-05T07:57:17.318Z,21.08
2023-02-05T07:59:48.030Z,24.08
2023-02-05T08:02:18.248Z,18.48
2023-02-05T08:04:48.473Z,20.75
2023-02-05T08:07:19.180Z,20.08
2023-02-05T08:09:49.861Z,21.88
2023-02-05T08:12:20.690Z,21.08
2023-02-05T08:14:50.787Z,27.27
2023-02-05T08:17:20.877Z,18.70
2023-02-05T08:19:50.964Z,20.42
2023-02-05T08:22:21.418Z,18.83
2023-02-05T08:24:51.544Z,35.17
2023-02-05T08:27:21.576Z,18.75
2023-02-05T08:29:51.779Z,16.65
2023-02-05T08:32:22.131Z,18.38
2023-02-05T08:34:52.279Z,19.15
2023-02-05T08:37:22.153Z,20.50
2023-02-05T08:39:52.706Z,19.85
2023-02-05T08:42:23.460Z,20.48
2023-02-05T08:44:54.120Z,19.08
2023-02-05T08:47:24.991Z,18.40
2023-02-05T08:49:55.037Z,19.83
2023-02-05T08:52:25.169Z,23.70
2023-02-05T08:54:55.588Z,18.95
2023-02-05T08:57:29.658Z,25.88
2023-02-05T09:00:00.473Z,23.30
2023-02-05T09:02:32.215Z,28.60
2023-02-05T09:05:08.887Z,25.20
2023-02-05T09:07:41.640Z,22.60
2023-02-05T09:10:12.908Z,21.27
2023-02-05T09:12:43.055Z,25.17
2023-02-05T09:15:13.242Z,19.20
2023-02-05T09:17:43.593Z,29.02
2023-02-05T09:20:14.981Z,34.70
2023-02-05T09:22:45.342Z,20.60
2023-02-05T09:25:15.631Z,21.95
2023-02-05T09:27:46.417Z,52.50
2023-02-05T09:30:16.874Z,21.05
2023-02-05T09:32:47.721Z,28.70
2023-02-05T09:35:19.097Z,24.55
2023-02-05T09:37:49.172Z,24.58
2023-02-05T09:40:22.389Z,23.05
2023-02-05T09:43:12.339Z,28.52
2023-02-05T09:45:54.566Z,24.15
2023-02-05T09:48:45.348Z,21.77
2023-02-05T09:51:15.315Z,21.00
2023-02-05T09:53:47.076Z,21.98
2023-02-05T09:56:18.504Z,19.85
2023-02-05T09:58:52.892Z,28.33
2023-02-05T10:01:43.624Z,24.35
2023-02-05T10:04:13.946Z,21.63
2023-02-05T10:07:04.353Z,24.52
2023-02-05T10:09:47.308Z,19.95
2023-02-05T10:12:37.618Z,19.60
2023-02-05T10:15:17.206Z,22.67
2023-02-05T10:18:06.783Z,34.28
2023-02-05T10:20:57.039Z,50.63
2023-02-05T10:23:35.448Z,37.20
2023-02-05T10:26:21.164Z,35.15
2023-02-05T10:29:01.276Z,32.28
2023-02-05T10:31:43.672Z,37.97
2023-02-05T10:34:32.195Z,32.00
2023-02-05T10:37:03.792Z,25.02
2023-02-05T10:39:34.094Z,27.40
2023-02-05T10:42:22.022Z,31.65
2023-02-05T10:44:53.051Z,41.05
2023-02-05T10:47:29.686Z,240.88
2023-02-05T10:50:06.125Z,38.78
2023-02-05T10:52:36.596Z,35.63
2023-02-05T10:55:06.964Z,34.17
2023-02-05T10:57:38.569Z,31.80
2023-02-05T11:00:25.162Z,27.50
2023-02-05T11:02:56.523Z,27.45
2023-02-05T11:05:34.554Z,29.13
2023-02-05T11:08:05.345Z,32.00
2023-02-05T11:10:37.827Z,28.75
2023-02-05T11:13:20.747Z,26.45
2023-02-05T11:16:02.281Z,28.98
2023-02-05T11:18:35.720Z,31.17
2023-02-05T11:21:07.597Z,28.52
2023-02-05T11:23:42.535Z,47.33
2023-02-05T11:26:19.272Z,31.58
2023-02-05T11:28:50.341Z,30.17
2023-02-05T11:31:33.529Z,35.25
2023-02-05T11:34:22.191Z,35.35
2023-02-05T11:36:57.277Z,32.92
2023-02-05T11:39:45.408Z,35.13
2023-02-05T11:42:26.518Z,34.55
2023-02-05T11:44:59.003Z,38.85
2023-02-05T11:47:39.769Z,38.47
2023-02-05T11:50:21.197Z,36.67
2023-02-05T11:52:51.406Z,35.13
2023-02-05T11:55:33.419Z,34.70
2023-02-05T11:58:04.544Z,32.40
2023-02-05T12:00:35.930Z,31.65
2023-02-05T12:03:08.480Z,42.67
2023-02-05T12:05:41.473Z,32.03
2023-02-05T12:08:20.291Z,35.47
2023-02-05T12:11:10.032Z,35.88
2023-02-05T12:14:03.780Z,31.30
2023-02-05T12:16:54.199Z,36.03
2023-02-05T12:19:25.625Z,40.35
2023-02-05T12:22:15.261Z,35.30
2023-02-05T12:25:05.088Z,37.65
2023-02-05T12:27:44.492Z,42.00
2023-02-05T12:30:34.352Z,41.85
2023-02-05T12:33:26.232Z,45.25
2023-02-05T12:36:02.948Z,46.25
2023-02-05T12:38:52.847Z,47.03
2023-02-05T12:41:31.278Z,46.28
2023-02-05T12:44:14.447Z,46.55
2023-02-05T12:46:59.663Z,47.72
2023-02-05T12:49:49.913Z,51.90
2023-02-05T12:52:27.907Z,50.30
2023-02-05T12:55:18.332Z,48.10
2023-02-05T12:57:52.594Z,46.75
2023-02-05T13:00:28.736Z,56.60
2023-02-05T13:03:18.330Z,69.20
2023-02-05T13:05:53.803Z,63.65
2023-02-05T13:08:28.125Z,63.05
2023-02-05T13:11:17.771Z,63.08
2023-02-05T13:13:54.346Z,60.92
2023-02-05T13:16:27.327Z,65.05
2023-02-05T13:19:09.895Z,67.15
2023-02-05T13:21:59.916Z,64.30
2023-02-05T13:25:09.736Z,63.45
2023-02-05T13:28:09.138Z,61.55
2023-02-05T13:30:54.310Z,65.82
2023-02-05T13:33:25.071Z,64.65
2023-02-05T13:36:14.776Z,67.88
2023-02-05T13:38:55.824Z,68.13
2023-02-05T13:41:45.876Z,67.90
2023-02-05T13:44:35.858Z,73.10
2023-02-05T13:47:25.880Z,68.90
2023-02-05T13:50:15.504Z,69.72
2023-02-05T13:53:07.658Z,63.80
2023-02-05T13:55:57.637Z,47.55
2023-02-05T13:58:36.810Z,41.95
2023-02-05T14:01:09.103Z,56.95
2023-02-05T14:03:41.861Z,60.53
2023-02-05T14:06:31.986Z,47.95
2023-02-05T14:09:09.340Z,60.28
2023-02-05T14:11:49.936Z,56.38
2023-02-05T14:14:23.829Z,66.35
2023-02-05T14:16:56.469Z,65.60
2023-02-05T14:19:46.464Z,74.57
2023-02-05T14:22:36.146Z,84.15
2023-02-05T14:25:07.558Z,76.50
2023-02-05T14:27:57.068Z,78.28
2023-02-05T14:30:39.271Z,68.13
2023-02-05T14:33:29.280Z,63.22
2023-02-05T14:36:19.785Z,62.58
2023-02-05T14:38:57.814Z,66.78
2023-02-05T14:41:29.655Z,83.55
2023-02-05T14:44:03.019Z,78.28
2023-02-05T14:46:41.762Z,71.45
2023-02-05T14:49:31.716Z,71.40
2023-02-05T14:52:03.185Z,80.55
2023-02-05T14:54:35.402Z,82.47
2023-02-05T14:57:25.491Z,73.10
2023-02-05T14:59:58.775Z,68.88
2023-02-05T15:02:49.553Z,73.53
2023-02-05T15:05:28.607Z,72.25
2023-02-05T15:08:18.294Z,73.38
2023-02-05T15:10:57.822Z,66.47
2023-02-05T15:13:28.088Z,64.97
2023-02-05T15:16:18.188Z,65.13
2023-02-05T15:18:51.774Z,65.97
2023-02-05T15:21:41.761Z,70.18
2023-02-05T15:24:17.378Z,67.88
2023-02-05T15:27:07.305Z,73.68
2023-02-05T15:29:45.119Z,74.93
2023-02-05T15:32:25.441Z,79.75
2023-02-05T15:34:57.656Z,76.25
2023-02-05T15:37:47.560Z,80.68
2023-02-05T15:40:37.227Z,78.63
2023-02-05T15:43:18.645Z,88.22
2023-02-05T15:45:48.937Z,75.00
2023-02-05T15:48:22.178Z,75.10
2023-02-05T15:50:59.501Z,75.30
2023-02-05T15:53:38.371Z,71.80
2023-02-05T15:56:18.494Z,69.65
2023-02-05T15:58:51.913Z,66.93
2023-02-05T16:01:43.423Z,75.45
2023-02-05T16:04:33.448Z,73.20
2023-02-05T16:07:04.749Z,125.43
2023-02-05T16:09:40.205Z,75.47
2023-02-05T16:12:16.733Z,70.40
2023-02-05T16:14:47.262Z,81.28
2023-02-05T16:17:22.920Z,81.85
2023-02-05T16:19:56.256Z,70.25
2023-02-05T16:22:46.238Z,67.43
2023-02-05T16:25:30.916Z,64.20
2023-02-05T16:28:02.609Z,67.75
2023-02-05T16:30:44.087Z,69.13
2023-02-05T16:33:33.914Z,66.63
2023-02-05T16:36:06.390Z,70.72
2023-02-05T16:38:36.917Z,66.78
2023-02-05T16:41:26.624Z,66.30
2023-02-05T16:43:58.248Z,60.30
2023-02-05T16:46:30.329Z,56.50
2023-02-05T16:49:05.329Z,58.47
2023-02-05T16:51:56.597Z,62.75
2023-02-05T16:54:31.556Z,66.10
2023-02-05T16:57:22.202Z,61.63
2023-02-05T16:59:54.208Z,60.88
2023-02-05T17:02:29.127Z,63.47
2023-02-05T17:05:00.564Z,62.83
2023-02-05T17:07:31.347Z,62.58
2023-02-05T17:10:21.592Z,71.25
2023-02-05T17:12:59.245Z,59.45
2023-02-05T17:15:32.604Z,69.35
2023-02-05T17:18:22.408Z,128.63
2023-02-05T17:20:53.376Z,73.85
2023-02-05T17:23:23.901Z,68.95
2023-02-05T17:25:57.658Z,68.28
2023-02-05T17:28:28.830Z,66.88
2023-02-05T17:31:00.329Z,64.55
2023-02-05T17:33:31.154Z,69.18
2023-02-05T17:36:01.943Z,75.65
2023-02-05T17:38:32.036Z,91.90
2023-02-05T17:41:22.064Z,81.93
2023-02-05T17:43:52.786Z,75.68
2023-02-05T17:46:23.485Z,73.13
2023-02-05T17:48:54.072Z,72.78
2023-02-05T17:51:25.167Z,67.65
2023-02-05T17:53:55.590Z,62.05
2023-02-05T17:56:26.122Z,65.38
2023-02-05T17:58:57.279Z,62.25
2023-02-05T18:01:27.962Z,65.32
2023-02-05T18:03:58.355Z,64.28
2023-02-05T18:06:28.762Z,62.25
2023-02-05T18:08:59.267Z,64.75
2023-02-05T18:11:30.041Z,59.40
2023-02-05T18:14:01.080Z,59.20
2023-02-05T18:16:32.066Z,64.55
2023-02-05T18:19:02.799Z,58.90
2023-02-05T18:21:33.350Z,59.70
2023-02-05T18:24:03.973Z,64.28
2023-02-05T18:26:34.715Z,62.78
2023-02-05T18:29:04.812Z,62.45
2023-02-05T18:31:36.655Z,62.63
2023-02-05T18:34:07.581Z,65.82
2023-02-05T18:36:38.169Z,62.33
2023-02-05T18:39:08.526Z,66.15
2023-02-05T18:41:39.681Z,64.10
2023-02-05T18:44:11.289Z,58.63
2023-02-05T18:46:41.948Z,55.08
2023-02-05T18:49:12.344Z,55.38
2023-02-05T18:51:42.385Z,57.80
2023-02-05T18:54:12.685Z,61.70
2023-02-05T18:56:43.013Z,59.67
2023-02-05T18:59:17.253Z,60.05
2023-02-05T19:01:47.705Z,60.05
2023-02-05T19:04:20.211Z,54.03
2023-02-05T19:06:54.967Z,54.67
2023-02-05T19:09:26.112Z,53.20
2023-02-05T19:11:57.448Z,57.17
2023-02-05T19:14:28.212Z,52.60
2023-02-05T19:16:58.259Z,52.45
2023-02-05T19:19:28.581Z,53.22
2023-02-05T19:22:06.541Z,51.80
2023-02-05T19:24:37.618Z,50.97
2023-02-05T19:27:08.214Z,46.60
2023-02-05T19:29:41.499Z,46.28
2023-02-05T19:32:11.616Z,47.22
2023-02-05T19:34:44.697Z,51.47
2023-02-05T19:37:15.075Z,55.05
2023-02-05T19:39:45.592Z,55.78
2023-02-05T19:42:15.680Z,55.70
2023-02-05T19:44:49.201Z,57.55
2023-02-05T19:47:19.608Z,56.78
2023-02-05T19:49:50.032Z,55.53
2023-02-05T19:52:20.365Z,50.42
2023-02-05T19:54:50.837Z,51.72
2023-02-05T19:57:21.222Z,52.15
2023-02-05T19:59:51.540Z,51.90
2023-02-05T20:02:22.454Z,54.30
2023-02-05T20:04:53.140Z,50.72
2023-02-05T20:07:23.509Z,49.53
2023-02-05T20:09:53.894Z,51.00
2023-02-05T20:12:24.039Z,51.78
2023-02-05T20:14:54.650Z,46.53
2023-02-05T20:17:24.775Z,52.72
2023-02-05T20:20:02.534Z,52.97
2023-02-05T20:22:39.353Z,52.30
2023-02-05T20:25:09.645Z,50.40
2023-02-05T20:27:39.798Z,49.45
2023-02-05T20:30:31.910Z,48.05
2023-02-05T20:33:02.043Z,49.25
2023-02-05T20:35:32.500Z,51.65
2023-02-05T20:38:02.828Z,50.38
2023-02-05T20:40:33.180Z,48.90
2023-02-05T20:43:04.069Z,47.10
2023-02-05T20:45:34.828Z,49.05
2023-02-05T20:48:04.889Z,50.60
2023-02-05T20:50:36.433Z,54.15
2023-02-05T20:53:06.921Z,52.97
2023-02-05T20:55:38.185Z,49.30
2023-02-05T20:58:08.261Z,49.95
2023-02-05T21:00:39.031Z,53.47
2023-02-05T21:03:09.264Z,56.15
2023-02-05T21:05:39.699Z,50.83
2023-02-05T21:08:10.177Z,56.47
2023-02-05T21:10:40.603Z,51.35
2023-02-05T21:13:10.613Z,52.13
2023-02-05T21:15:41.088Z,52.90
2023-02-05T21:18:12.366Z,53.10
2023-02-05T21:20:42.548Z,53.75
2023-02-05T21:23:12.703Z,53.15
2023-02-05T21:25:43.269Z,53.22
2023-02-05T21:28:13.977Z,50.58
2023-02-05T21:30:44.629Z,51.88
2023-02-05T21:33:15.050Z,54.63
2023-02-05T21:35:45.146Z,56.10
2023-02-05T21:38:15.220Z,52.63
2023-02-05T21:40:45.624Z,53.65
2023-02-05T21:43:15.961Z,54.97
2023-02-05T21:45:46.702Z,52.10
2023-02-05T21:48:16.782Z,55.20
2023-02-05T21:50:47.082Z,53.53
2023-02-05T21:53:18.479Z,53.58
2023-02-05T21:55:49.071Z,54.90
2023-02-05T21:58:19.744Z,54.30
2023-02-05T22:00:50.111Z,54.30
2023-02-05T22:03:20.340Z,55.95
2023-02-05T22:05:50.739Z,55.75
2023-02-05T22:08:20.871Z,58.40
2023-02-05T22:10:51.536Z,59.00
2023-02-05T22:13:21.667Z,60.05
2023-02-05T22:15:51.677Z,59.05
2023-02-05T22:18:21.914Z,57.30
2023-02-05T22:20:52.018Z,60.53
2023-02-05T22:23:22.484Z,61.15
2023-02-05T22:25:53.115Z,57.80
2023-02-05T22:28:23.900Z,60.78
2023-02-05T22:30:54.017Z,63.08
2023-02-05T22:33:25.092Z,63.53
2023-02-05T22:35:55.450Z,70.25
2023-02-05T22:38:25.937Z,62.58
2023-02-05T22:40:56.142Z,68.50
2023-02-05T22:43:26.346Z,66.35
2023-02-05T22:45:56.813Z,65.28
2023-02-05T22:48:27.188Z,66.65
2023-02-05T22:50:57.314Z,68.88
2023-02-05T22:53:27.431Z,74.78
2023-02-05T22:55:57.881Z,78.93
2023-02-05T22:58:28.077Z,85.53
2023-02-05T23:00:58.903Z,89.80
2023-02-05T23:03:29.310Z,89.10
2023-02-05T23:05:59.737Z,89.63
2023-02-05T23:08:30.412Z,78.15
2023-02-05T23:11:05.373Z,83.75
2023-02-05T23:13:36.107Z,91.15
2023-02-05T23:16:10.821Z,92.25
2023-02-05T23:18:42.088Z,85.75
2023-02-05T23:21:13.232Z,87.55
2023-02-05T23:23:43.682Z,90.68
2023-02-05T23:26:16.239Z,92.43
2023-02-05T23:28:47.004Z,85.55
2023-02-05T23:31:17.939Z,94.82
2023-02-05T23:33:48.498Z,90.15
2023-02-05T23:36:18.702Z,87.55
2023-02-05T23:38:48.894Z,88.75
2023-02-05T23:41:37.041Z,82.55
2023-02-05T23:44:15.364Z,80.43
2023-02-05T23:46:46.840Z,74.95
2023-02-05T23:49:17.475Z,78.18
2023-02-05T23:51:47.539Z,80.68
2023-02-05T23:54:17.950Z,81.63
2023-02-05T23:56:48.733Z,77.95
2023-02-05T23:59:19.031Z,76.35
